Time;durP1;ratioP1;P1;durP2;ratioP2;P2;SDS_P1;SDS_P2;PMS_P1;PMS_P2;Temp;Humidity;BMP_temperature;BMP_pressure;BME280_temperature;BME280_humidity;BME280_pressure;Samples;Min_cycle;Max_cycle;Signal;HPM_P1;HPM_P2
2022/01/31 00:01:46;;;;;;;17.85;4.93;;;2.70;99.90;;;;;;5047313;28;20078;-58
2022/01/31 00:04:12;;;;;;;17.35;4.53;;;2.80;99.90;;;;;;5045474;28;20040;-59
2022/01/31 00:06:37;;;;;;;21.00;3.35;;;2.80;99.90;;;;;;5025173;28;20033;-57
2022/01/31 00:09:03;;;;;;;8.60;3.10;;;2.90;99.90;;;;;;5040862;28;20029;-59
2022/01/31 00:11:29;;;;;;;17.55;3.35;;;2.90;99.90;;;;;;5040888;28;20029;-58
2022/01/31 00:14:03;;;;;;;16.90;4.10;;;2.90;99.90;;;;;;5045408;28;20391;-60
2022/01/31 00:16:32;;;;;;;10.35;3.08;;;2.90;99.90;;;;;;5045749;28;20043;-55
2022/01/31 00:18:59;;;;;;;15.60;2.75;;;2.90;99.90;;;;;;5045225;28;20103;-58
2022/01/31 00:21:25;;;;;;;13.77;3.22;;;2.80;99.90;;;;;;5043310;28;20045;-59
2022/01/31 00:23:51;;;;;;;14.35;2.80;;;2.80;99.90;;;;;;5038998;28;20397;-58
2022/01/31 00:26:17;;;;;;;12.27;2.63;;;2.70;99.90;;;;;;5038201;28;20548;-58
2022/01/31 00:28:42;;;;;;;18.17;3.40;;;2.70;99.90;;;;;;5035097;28;20045;-59
2022/01/31 00:31:08;;;;;;;15.88;2.97;;;2.70;99.90;;;;;;5032595;28;20036;-59
2022/01/31 00:33:34;;;;;;;14.68;3.00;;;2.60;99.90;;;;;;5033485;28;20032;-56
2022/01/31 00:35:59;;;;;;;13.15;3.00;;;2.50;99.90;;;;;;5038534;28;20179;-59
2022/01/31 00:38:25;;;;;;;12.60;2.55;;;2.50;99.90;;;;;;5036629;28;20037;-59
2022/01/31 00:40:50;;;;;;;12.73;2.80;;;2.40;99.90;;;;;;5032902;28;20449;-59
2022/01/31 00:43:18;;;;;;;14.48;3.10;;;2.30;99.90;;;;;;5029091;28;20037;-56
2022/01/31 00:45:56;;;;;;;12.98;3.92;;;2.30;99.90;;;;;;5034079;28;20028;-56
2022/01/31 00:48:25;;;;;;;11.57;2.47;;;2.30;99.90;;;;;;5046326;28;20096;-57
2022/01/31 00:50:50;;;;;;;24.30;3.85;;;2.40;99.90;;;;;;5047260;28;20025;-59
2022/01/31 00:53:16;;;;;;;19.73;2.88;;;2.50;99.90;;;;;;5041308;28;20044;-60
2022/01/31 00:55:41;;;;;;;18.17;3.58;;;2.60;99.90;;;;;;5038216;28;20451;-59
2022/01/31 00:58:07;;;;;;;13.43;2.88;;;2.60;99.90;;;;;;5038162;28;20026;-59
2022/01/31 01:00:33;;;;;;;16.17;4.55;;;2.60;99.90;;;;;;5045531;28;20060;-57
2022/01/31 01:02:58;;;;;;;15.77;4.15;;;2.60;99.90;;;;;;5023216;28;20041;-58
2022/01/31 01:05:24;;;;;;;13.88;2.72;;;2.70;99.90;;;;;;5038109;28;20483;-59
2022/01/31 01:07:49;;;;;;;12.93;2.83;;;2.70;99.90;;;;;;5039162;28;20527;-59
2022/01/31 01:10:16;;;;;;;9.88;3.38;;;2.80;99.90;;;;;;5033580;28;20037;-60
2022/01/31 01:12:42;;;;;;;17.25;2.60;;;2.80;99.90;;;;;;5042195;28;20053;-58
2022/01/31 01:15:09;;;;;;;19.02;3.30;;;2.90;99.90;;;;;;5040992;28;20063;-59
2022/01/31 01:17:34;;;;;;;19.45;3.15;;;2.90;99.90;;;;;;5044534;28;20045;-60
2022/01/31 01:20:01;;;;;;;16.73;2.70;;;2.90;99.90;;;;;;5048597;28;20098;-59
2022/01/31 01:22:26;;;;;;;10.98;2.88;;;2.90;99.90;;;;;;5048051;28;20028;-59
2022/01/31 01:24:52;;;;;;;11.85;2.55;;;3.00;99.90;;;;;;5042447;28;20021;-59
2022/01/31 01:27:21;;;;;;;20.70;3.30;;;2.90;99.90;;;;;;5041347;28;20025;-59
2022/01/31 01:29:47;;;;;;;17.25;2.95;;;3.00;99.90;;;;;;5041426;28;20021;-59
2022/01/31 01:32:14;;;;;;;14.02;2.90;;;3.00;99.90;;;;;;5042382;28;20060;-59
2022/01/31 01:34:39;;;;;;;13.15;2.90;;;3.10;99.90;;;;;;5036581;28;20371;-60
2022/01/31 01:37:06;;;;;;;15.82;3.42;;;3.10;99.90;;;;;;5039468;28;20033;-59
2022/01/31 01:39:31;;;;;;;20.88;3.42;;;3.10;99.90;;;;;;5038004;28;20702;-59
2022/01/31 01:41:57;;;;;;;13.00;2.67;;;3.10;99.90;;;;;;5041025;28;20049;-60
2022/01/31 01:44:45;;;;;;;14.90;2.63;;;3.20;99.90;;;;;;5042360;28;20112;-58
2022/01/31 01:47:11;;;;;;;18.80;2.83;;;3.20;99.90;;;;;;5040341;28;20112;-57
2022/01/31 01:49:37;;;;;;;16.98;2.83;;;3.20;99.90;;;;;;5038557;28;20443;-60
2022/01/31 01:52:03;;;;;;;15.25;2.78;;;3.20;99.90;;;;;;5045231;28;20120;-57
2022/01/31 01:54:29;;;;;;;11.05;3.42;;;3.20;99.90;;;;;;5044336;28;20075;-58
2022/01/31 01:56:55;;;;;;;14.15;2.90;;;3.20;99.90;;;;;;5043326;28;20406;-57
2022/01/31 01:59:22;;;;;;;14.65;2.85;;;3.20;99.90;;;;;;5035894;28;20034;-58
2022/01/31 02:01:47;;;;;;;9.65;2.80;;;3.20;99.90;;;;;;5035695;28;20392;-59
2022/01/31 02:04:13;;;;;;;14.85;2.90;;;3.20;99.90;;;;;;5044044;28;20029;-59
2022/01/31 02:06:40;;;;;;;13.88;2.75;;;3.20;99.90;;;;;;5036224;28;20048;-59
2022/01/31 02:09:06;;;;;;;21.45;4.40;;;3.20;99.90;;;;;;5035139;28;20021;-59
2022/01/31 02:11:31;;;;;;;14.40;2.28;;;3.20;99.90;;;;;;5039723;28;20063;-58
2022/01/31 02:13:57;;;;;;;14.55;4.15;;;3.30;99.90;;;;;;5039684;28;20036;-60
2022/01/31 02:16:22;;;;;;;10.50;2.92;;;3.30;99.90;;;;;;5038319;28;20033;-58
2022/01/31 02:18:50;;;;;;;22.00;3.05;;;3.30;99.90;;;;;;5040444;28;20033;-59
2022/01/31 02:21:17;;;;;;;14.40;4.15;;;3.30;99.90;;;;;;5044828;28;20119;-55
2022/01/31 02:23:43;;;;;;;12.95;2.75;;;3.30;99.90;;;;;;5035323;28;20029;-58
2022/01/31 02:26:09;;;;;;;13.95;3.13;;;3.30;99.90;;;;;;5038941;28;20032;-58
2022/01/31 02:28:36;;;;;;;12.95;2.75;;;3.30;99.90;;;;;;5038502;28;20072;-59
2022/01/31 02:31:04;;;;;;;12.65;2.30;;;3.30;99.90;;;;;;5044734;28;20033;-59
2022/01/31 02:33:29;;;;;;;18.58;2.80;;;3.40;99.90;;;;;;5036697;28;20044;-60
2022/01/31 02:35:57;;;;;;;15.77;2.88;;;3.40;99.90;;;;;;5043984;28;20025;-59
2022/01/31 02:38:23;;;;;;;15.40;2.75;;;3.40;99.90;;;;;;5041068;28;20029;-59
2022/01/31 02:40:50;;;;;;;11.98;2.58;;;3.50;99.90;;;;;;5041640;28;20025;-58
2022/01/31 02:43:22;;;;;;;11.55;2.75;;;3.50;99.90;;;;;;5030595;28;20490;-58
2022/01/31 02:45:48;;;;;;;12.65;2.58;;;3.50;99.90;;;;;;5044180;28;20035;-59
2022/01/31 02:48:17;;;;;;;13.68;3.20;;;3.50;99.90;;;;;;5047283;28;20036;-58
2022/01/31 02:50:43;;;;;;;20.73;2.65;;;3.60;99.90;;;;;;5039023;28;20154;-60
2022/01/31 02:53:24;;;;;;;14.25;2.55;;;3.50;99.90;;;;;;5038179;28;20073;-57
2022/01/31 02:55:50;;;;;;;16.65;2.70;;;3.50;99.90;;;;;;5039014;28;20041;-59
2022/01/31 02:58:17;;;;;;;12.10;2.63;;;3.50;99.90;;;;;;5044392;28;20040;-58
2022/01/31 03:00:42;;;;;;;14.73;2.80;;;3.50;99.90;;;;;;5031365;28;20516;-59
2022/01/31 03:03:08;;;;;;;14.20;3.80;;;3.50;99.90;;;;;;5034396;28;20036;-60
2022/01/31 03:05:34;;;;;;;14.93;2.55;;;3.50;99.90;;;;;;5037804;28;20087;-60
2022/01/31 03:08:00;;;;;;;16.95;3.30;;;3.50;99.90;;;;;;5044533;28;20804;-60
2022/01/31 03:10:26;;;;;;;17.77;2.78;;;3.50;99.90;;;;;;5047866;28;20043;-61
2022/01/31 03:12:51;;;;;;;17.95;2.70;;;3.40;99.90;;;;;;5029157;28;20370;-60
2022/01/31 03:15:17;;;;;;;9.85;2.67;;;3.40;99.90;;;;;;5030194;28;20448;-59
2022/01/31 03:17:47;;;;;;;17.15;3.28;;;3.40;99.90;;;;;;5039565;28;20025;-59
2022/01/31 03:20:14;;;;;;;18.23;3.05;;;3.40;99.90;;;;;;5036287;28;20502;-59
2022/01/31 03:22:40;;;;;;;22.13;3.33;;;3.30;99.90;;;;;;5039885;28;20029;-57
2022/01/31 03:25:05;;;;;;;18.95;3.10;;;3.30;99.90;;;;;;5039445;28;20052;-59
2022/01/31 03:27:31;;;;;;;17.10;3.47;;;3.20;99.90;;;;;;5036380;28;20048;-59
2022/01/31 03:29:56;;;;;;;26.73;3.47;;;3.20;99.90;;;;;;5042011;28;20120;-57
2022/01/31 03:32:22;;;;;;;21.98;3.38;;;3.10;99.90;;;;;;5034692;28;20055;-58
2022/01/31 03:34:48;;;;;;;11.70;2.75;;;3.10;99.90;;;;;;5036313;28;20028;-57
2022/01/31 03:37:13;;;;;;;11.50;2.58;;;3.10;99.90;;;;;;5044097;28;20569;-58
2022/01/31 03:39:39;;;;;;;24.92;3.50;;;3.00;99.90;;;;;;5036015;28;20057;-60
2022/01/31 03:42:04;;;;;;;12.80;2.90;;;3.00;99.90;;;;;;5036593;28;20083;-58
2022/01/31 03:44:30;;;;;;;22.38;3.17;;;3.00;99.90;;;;;;5044249;28;20083;-60
2022/01/31 03:46:57;;;;;;;15.52;2.40;;;3.00;99.90;;;;;;5043647;28;20048;-59
2022/01/31 03:49:22;;;;;;;20.65;2.97;;;3.10;99.90;;;;;;5036117;28;20487;-59
2022/01/31 03:51:48;;;;;;;9.25;3.28;;;3.10;99.90;;;;;;5036380;28;20033;-60
2022/01/31 03:54:14;;;;;;;13.27;2.67;;;3.10;99.90;;;;;;5035953;28;20108;-57
2022/01/31 03:56:39;;;;;;;12.82;2.30;;;3.10;99.90;;;;;;5030233;28;20068;-58
2022/01/31 03:59:05;;;;;;;16.40;2.45;;;3.10;99.90;;;;;;5037971;28;20037;-59
2022/01/31 04:01:31;;;;;;;15.50;2.40;;;3.10;99.90;;;;;;5030676;28;20112;-58
2022/01/31 04:03:57;;;;;;;18.60;3.40;;;3.20;99.90;;;;;;5032242;28;20136;-59
2022/01/31 04:06:25;;;;;;;10.65;2.42;;;3.20;99.90;;;;;;5044445;28;20104;-58
2022/01/31 04:08:51;;;;;;;15.30;3.28;;;3.30;99.90;;;;;;5038376;28;20029;-59
2022/01/31 04:11:17;;;;;;;6.65;2.03;;;3.30;99.90;;;;;;5033072;28;20677;-59
2022/01/31 04:13:43;;;;;;;10.43;2.83;;;3.30;99.90;;;;;;5027299;28;20041;-57
2022/01/31 04:16:08;;;;;;;10.80;2.70;;;3.40;99.90;;;;;;5040599;28;20029;-59
2022/01/31 04:18:34;;;;;;;12.18;2.95;;;3.40;99.90;;;;;;5037245;28;20029;-59
2022/01/31 04:21:00;;;;;;;10.55;3.13;;;3.40;99.90;;;;;;5037060;28;20403;-59
2022/01/31 04:23:28;;;;;;;10.35;2.60;;;3.40;99.90;;;;;;5041593;28;20548;-59
2022/01/31 04:26:01;;;;;;;14.18;2.50;;;3.50;99.90;;;;;;5032364;28;20022;-58
2022/01/31 04:28:32;;;;;;;12.88;2.40;;;3.50;99.90;;;;;;5038982;28;20025;-58
2022/01/31 04:31:11;;;;;;;9.98;2.10;;;3.50;99.90;;;;;;5039478;28;20029;-58
2022/01/31 04:33:37;;;;;;;11.00;2.30;;;3.60;99.90;;;;;;5041361;28;20494;-59
2022/01/31 04:36:03;;;;;;;4.60;1.90;;;3.60;99.90;;;;;;5037363;28;20049;-58
2022/01/31 04:38:29;;;;;;;6.20;2.10;;;3.60;99.90;;;;;;5035897;28;20407;-59
2022/01/31 04:40:55;;;;;;;5.60;1.52;;;3.70;99.90;;;;;;5038782;28;20033;-57
2022/01/31 04:43:21;;;;;;;3.20;1.55;;;3.70;99.90;;;;;;5040517;28;20509;-58
2022/01/31 04:45:48;;;;;;;5.25;1.77;;;3.80;99.90;;;;;;5043544;28;20096;-58
2022/01/31 04:48:15;;;;;;;8.00;2.08;;;3.80;99.90;;;;;;5044692;28;20086;-58
2022/01/31 04:50:42;;;;;;;3.95;1.73;;;3.80;99.90;;;;;;5035886;28;20564;-60
2022/01/31 04:53:07;;;;;;;3.03;1.73;;;3.90;99.90;;;;;;5041956;28;20505;-59
2022/01/31 04:55:34;;;;;;;6.10;2.13;;;3.80;99.90;;;;;;5044202;28;20029;-59
2022/01/31 04:57:59;;;;;;;6.38;2.90;;;3.80;99.90;;;;;;5041275;28;20573;-57
2022/01/31 05:00:25;;;;;;;6.25;2.10;;;3.80;99.90;;;;;;5036262;28;20091;-59
2022/01/31 05:02:51;;;;;;;4.85;2.33;;;3.80;99.90;;;;;;5042152;28;20107;-58
2022/01/31 05:05:17;;;;;;;7.68;2.45;;;3.80;99.90;;;;;;5042449;28;20501;-58
2022/01/31 05:07:42;;;;;;;9.93;2.45;;;3.80;99.90;;;;;;5033938;28;20028;-57
2022/01/31 05:10:08;;;;;;;7.47;2.40;;;3.80;99.90;;;;;;5042641;28;20612;-55
2022/01/31 05:12:34;;;;;;;4.60;2.53;;;3.80;99.90;;;;;;5041849;28;20024;-57
2022/01/31 05:15:00;;;;;;;7.05;3.05;;;3.80;99.90;;;;;;5039132;28;20143;-59
2022/01/31 05:17:25;;;;;;;7.28;3.15;;;3.80;99.90;;;;;;5040018;28;20048;-58
2022/01/31 05:19:51;;;;;;;11.18;3.53;;;3.80;99.90;;;;;;5029642;28;20049;-55
2022/01/31 05:22:16;;;;;;;10.43;3.65;;;3.90;99.90;;;;;;5035278;28;20128;-58
2022/01/31 05:24:42;;;;;;;7.20;3.70;;;3.90;99.90;;;;;;5041955;28;20364;-57
2022/01/31 05:27:07;;;;;;;10.27;3.78;;;3.90;99.90;;;;;;5044489;28;20108;-59
2022/01/31 05:29:33;;;;;;;11.20;3.97;;;3.90;99.90;;;;;;5038108;28;20506;-58
2022/01/31 05:31:58;;;;;;;12.65;4.20;;;3.90;99.90;;;;;;5040342;28;20093;-59
2022/01/31 05:34:24;;;;;;;11.82;4.05;;;4.00;99.90;;;;;;5039232;28;20069;-57
2022/01/31 05:36:55;;;;;;;12.52;4.97;;;4.00;99.90;;;;;;5044620;28;20052;-58
2022/01/31 05:39:24;;;;;;;11.18;4.65;;;4.00;99.90;;;;;;5045239;28;20076;-61
2022/01/31 05:41:50;;;;;;;15.48;4.07;;;4.10;99.90;;;;;;5043516;28;20029;-59
2022/01/31 05:44:16;;;;;;;11.10;4.53;;;4.10;99.90;;;;;;5034261;28;20018;-58
2022/01/31 05:46:42;;;;;;;16.55;4.70;;;4.20;99.90;;;;;;5041468;28;20022;-59
2022/01/31 05:49:07;;;;;;;14.90;5.28;;;4.30;99.90;;;;;;5040868;28;20017;-59
2022/01/31 05:51:33;;;;;;;14.45;5.45;;;4.30;99.90;;;;;;5043118;28;20159;-58
2022/01/31 05:53:58;;;;;;;13.98;4.60;;;4.30;99.90;;;;;;5038538;28;20033;-58
2022/01/31 05:56:24;;;;;;;17.65;4.75;;;4.40;99.90;;;;;;5032417;28;20061;-60
2022/01/31 05:58:50;;;;;;;20.33;5.38;;;4.40;99.90;;;;;;5040351;28;20029;-59
2022/01/31 06:01:16;;;;;;;14.68;5.50;;;4.40;99.90;;;;;;5042353;28;20029;-59
2022/01/31 06:03:42;;;;;;;16.05;4.95;;;4.40;99.90;;;;;;5036058;28;20025;-60
2022/01/31 06:06:07;;;;;;;23.73;7.00;;;4.50;99.90;;;;;;5031957;28;20022;-60
2022/01/31 06:08:33;;;;;;;19.00;4.82;;;4.50;99.90;;;;;;5044188;28;20143;-59
2022/01/31 06:10:59;;;;;;;14.02;4.32;;;4.50;99.90;;;;;;5039358;28;20053;-59
2022/01/31 06:13:28;;;;;;;23.02;4.85;;;4.60;99.90;;;;;;5044608;28;20025;-57
2022/01/31 06:15:54;;;;;;;21.05;5.28;;;4.60;99.90;;;;;;5035254;28;20043;-58
2022/01/31 06:18:20;;;;;;;21.25;4.65;;;4.60;99.90;;;;;;5026146;28;20029;-58
2022/01/31 06:20:46;;;;;;;19.33;4.93;;;4.70;99.90;;;;;;5033974;28;20049;-58
2022/01/31 06:23:12;;;;;;;15.10;4.82;;;4.70;99.90;;;;;;5033019;28;20029;-60
2022/01/31 06:25:38;;;;;;;25.35;4.82;;;4.70;99.90;;;;;;5040702;28;20472;-58
2022/01/31 06:28:05;;;;;;;14.70;4.57;;;4.70;99.90;;;;;;5043838;28;20521;-59
2022/01/31 06:30:31;;;;;;;15.93;4.47;;;4.70;99.90;;;;;;5033018;28;20491;-59
2022/01/31 06:32:57;;;;;;;19.23;5.32;;;4.70;99.90;;;;;;5046356;28;20021;-59
2022/01/31 06:35:23;;;;;;;16.45;4.63;;;4.70;99.90;;;;;;5032634;28;20522;-64
2022/01/31 06:37:51;;;;;;;16.15;4.25;;;4.70;99.90;;;;;;5036160;28;20021;-58
2022/01/31 06:40:17;;;;;;;16.20;4.93;;;4.70;99.90;;;;;;5040223;28;20174;-58
2022/01/31 06:42:42;;;;;;;21.45;4.50;;;4.70;99.90;;;;;;5038234;28;20112;-57
2022/01/31 06:45:09;;;;;;;19.88;4.75;;;4.70;99.90;;;;;;5038897;28;20100;-56
2022/01/31 06:47:35;;;;;;;15.88;3.85;;;4.70;99.90;;;;;;5049670;28;20486;-59
2022/01/31 06:50:04;;;;;;;16.63;3.50;;;4.80;99.90;;;;;;5038897;28;20025;-58
2022/01/31 06:52:33;;;;;;;16.48;3.25;;;4.70;99.90;;;;;;5042630;28;20041;-58
2022/01/31 06:55:02;;;;;;;17.35;3.35;;;4.70;99.90;;;;;;5036273;28;20025;-58
2022/01/31 06:57:33;;;;;;;18.73;3.55;;;4.70;99.90;;;;;;5040540;28;20380;-58
2022/01/31 07:00:00;;;;;;;19.67;5.07;;;4.70;99.90;;;;;;5034919;28;20368;-57
2022/01/31 07:02:26;;;;;;;15.25;3.22;;;4.70;99.90;;;;;;5036607;28;20638;-58
2022/01/31 07:04:52;;;;;;;24.80;4.35;;;4.70;99.90;;;;;;5038998;28;20056;-59
2022/01/31 07:07:17;;;;;;;21.75;4.30;;;4.70;99.90;;;;;;5040959;28;20434;-56
2022/01/31 07:09:43;;;;;;;18.55;3.00;;;4.60;99.90;;;;;;5032049;28;20029;-58
2022/01/31 07:12:10;;;;;;;15.57;2.90;;;4.70;99.90;;;;;;5036433;28;20017;-58
2022/01/31 07:14:36;;;;;;;16.95;2.92;;;4.70;99.90;;;;;;5037330;28;20029;-59
2022/01/31 07:17:04;;;;;;;20.13;4.80;;;4.70;99.90;;;;;;5037517;28;20142;-58
2022/01/31 07:19:33;;;;;;;20.58;2.78;;;4.70;99.90;;;;;;5036841;28;20045;-57
2022/01/31 07:21:59;;;;;;;23.10;3.72;;;4.70;99.90;;;;;;5037422;28;20555;-58
2022/01/31 07:24:32;;;;;;;14.70;2.95;;;4.70;99.90;;;;;;5026347;28;20137;-58
2022/01/31 07:26:58;;;;;;;16.25;2.70;;;4.70;99.90;;;;;;5036592;28;20498;-59
2022/01/31 07:29:23;;;;;;;11.05;2.58;;;4.70;99.90;;;;;;5036133;28;20107;-58
2022/01/31 07:31:50;;;;;;;10.40;2.78;;;4.60;99.90;;;;;;5035782;28;20040;-59
2022/01/31 07:34:17;;;;;;;8.80;2.22;;;4.60;99.90;;;;;;5042206;28;20025;-58
2022/01/31 07:36:44;;;;;;;10.68;2.50;;;4.50;99.90;;;;;;5035983;28;20071;-59
2022/01/31 07:39:10;;;;;;;15.20;2.90;;;4.50;99.90;;;;;;5038675;28;20079;-58
2022/01/31 07:41:36;;;;;;;19.83;4.00;;;4.40;99.90;;;;;;5038473;28;20120;-57
2022/01/31 07:44:02;;;;;;;11.50;3.05;;;4.40;99.90;;;;;;5015406;28;20128;-58
2022/01/31 07:46:28;;;;;;;7.70;2.40;;;4.30;99.90;;;;;;5037478;28;20033;-58
2022/01/31 07:48:54;;;;;;;12.43;2.08;;;4.30;99.90;;;;;;5035682;28;20109;-58
2022/01/31 07:51:23;;;;;;;8.38;2.22;;;4.20;99.90;;;;;;5041261;28;20045;-56
2022/01/31 07:53:49;;;;;;;15.13;3.03;;;4.10;99.90;;;;;;5045671;28;20029;-58
2022/01/31 07:56:16;;;;;;;10.20;3.45;;;4.10;99.90;;;;;;5041205;28;20052;-59
2022/01/31 07:58:42;;;;;;;9.45;3.10;;;4.10;99.90;;;;;;5035890;28;20025;-58
2022/01/31 08:01:08;;;;;;;6.85;2.50;;;4.00;99.90;;;;;;5030134;28;20479;-59
2022/01/31 08:03:34;;;;;;;13.45;3.15;;;4.00;99.90;;;;;;5030177;28;20032;-59
2022/01/31 08:06:01;;;;;;;8.85;3.05;;;4.00;99.90;;;;;;5035513;28;20040;-59
2022/01/31 08:08:30;;;;;;;9.48;2.90;;;3.90;99.90;;;;;;5036803;28;20049;-57
2022/01/31 08:10:57;;;;;;;12.23;4.55;;;4.00;99.90;;;;;;5033440;28;20029;-58
2022/01/31 08:13:25;;;;;;;14.15;4.60;;;3.90;99.90;;;;;;5041043;28;20036;-59
2022/01/31 08:18:46;;;;;;;17.48;5.25;;;4.00;99.90;;;;;;5026199;28;20051;-57
2022/01/31 08:21:14;;;;;;;14.68;4.03;;;4.00;99.90;;;;;;5044185;28;20025;-59
2022/01/31 08:23:41;;;;;;;13.73;3.83;;;4.00;99.90;;;;;;5030633;28;20033;-59
2022/01/31 08:26:11;;;;;;;18.45;3.80;;;3.90;99.90;;;;;;5039587;28;20639;-58
2022/01/31 08:28:50;;;;;;;14.45;4.65;;;4.00;99.90;;;;;;5026349;28;20045;-58
2022/01/31 08:31:19;;;;;;;18.48;2.75;;;4.00;99.90;;;;;;5037345;28;20024;-59
2022/01/31 08:36:24;;;;;;;16.83;3.83;;;4.00;99.90;;;;;;5039587;28;20451;-59
2022/01/31 08:38:50;;;;;;;19.80;3.22;;;4.00;99.90;;;;;;5045142;28;20094;-59
2022/01/31 08:41:16;;;;;;;15.45;2.90;;;4.10;99.90;;;;;;5033685;28;20482;-58
2022/01/31 08:43:42;;;;;;;20.55;3.38;;;4.10;99.90;;;;;;5032327;28;20387;-59
2022/01/31 08:46:10;;;;;;;15.52;2.67;;;4.20;99.90;;;;;;5035806;28;20041;-58
2022/01/31 08:48:36;;;;;;;21.88;3.20;;;4.20;99.90;;;;;;5032413;28;20017;-57
2022/01/31 08:51:04;;;;;;;22.33;2.83;;;4.20;99.90;;;;;;5040037;28;20032;-56
2022/01/31 08:53:32;;;;;;;11.95;2.60;;;4.20;99.90;;;;;;5039010;28;20596;-58
2022/01/31 08:56:12;;;;;;;15.23;3.95;;;4.20;99.90;;;;;;5030116;28;20021;-53
2022/01/31 08:58:43;;;;;;;13.93;3.08;;;4.20;99.90;;;;;;5033633;28;20026;-56
2022/01/31 09:01:09;;;;;;;12.70;2.85;;;4.20;99.90;;;;;;5038539;28;20124;-58
2022/01/31 09:06:05;;;;;;;15.13;3.17;;;4.20;99.90;;;;;;5042952;28;20021;-58
2022/01/31 09:08:31;;;;;;;26.40;4.53;;;4.30;99.90;;;;;;5036505;28;20025;-58
2022/01/31 09:10:56;;;;;;;10.00;2.45;;;4.30;99.90;;;;;;5036896;28;20032;-57
2022/01/31 09:13:22;;;;;;;20.00;3.75;;;4.20;99.90;;;;;;5041265;28;20164;-57
2022/01/31 09:15:47;;;;;;;10.70;2.55;;;4.20;99.90;;;;;;5040698;28;20064;-58
2022/01/31 09:18:13;;;;;;;13.25;2.55;;;4.20;99.90;;;;;;5033534;28;20546;-56
2022/01/31 09:20:38;;;;;;;11.07;3.30;;;4.10;99.90;;;;;;5044126;28;20490;-58
2022/01/31 09:23:05;;;;;;;9.85;3.13;;;4.10;99.90;;;;;;5037337;28;20487;-59
2022/01/31 09:25:31;;;;;;;17.55;3.50;;;4.10;99.90;;;;;;5046073;28;20119;-59
2022/01/31 09:27:58;;;;;;;9.57;2.72;;;4.10;99.90;;;;;;5040367;28;20022;-59
2022/01/31 09:30:26;;;;;;;14.88;2.90;;;4.10;99.90;;;;;;5044738;28;20059;-59
2022/01/31 09:32:52;;;;;;;16.95;3.65;;;4.00;99.90;;;;;;5038507;28;20403;-59
2022/01/31 09:35:18;;;;;;;10.93;2.75;;;4.00;99.90;;;;;;5031075;28;20038;-58
2022/01/31 09:37:43;;;;;;;12.65;3.28;;;4.00;99.90;;;;;;5040183;28;20040;-57
2022/01/31 09:40:12;;;;;;;10.77;2.33;;;4.00;99.90;;;;;;5038267;28;20045;-58
2022/01/31 09:42:52;;;;;;;14.43;3.47;;;4.00;99.90;;;;;;5041864;28;20050;-57
2022/01/31 09:45:34;;;;;;;11.10;2.45;;;4.00;99.90;;;;;;5045116;28;20041;-59
2022/01/31 09:50:27;;;;;;;6.47;1.95;;;4.00;99.90;;;;;;5033583;28;20014;-59
2022/01/31 09:52:55;;;;;;;19.27;2.70;;;4.00;99.90;;;;;;5037379;28;20027;-57
2022/01/31 09:55:22;;;;;;;12.10;2.03;;;4.00;99.90;;;;;;5035550;28;20033;-58
2022/01/31 09:57:48;;;;;;;11.95;1.95;;;4.00;99.90;;;;;;5040062;28;20033;-58
2022/01/31 10:00:14;;;;;;;9.35;2.30;;;4.00;99.90;;;;;;5044900;28;20104;-57
2022/01/31 10:02:40;;;;;;;12.18;2.25;;;4.00;99.90;;;;;;5039526;28;20119;-57
2022/01/31 10:05:06;;;;;;;17.23;4.13;;;4.00;99.90;;;;;;5041430;28;20108;-56
2022/01/31 10:07:46;;;;;;;18.33;2.42;;;3.90;99.90;;;;;;5036347;28;20040;-61
2022/01/31 10:10:24;;;;;;;11.40;2.22;;;4.00;99.90;;;;;;5040857;28;20025;-58
2022/01/31 10:18:08;;;;;;;14.60;2.58;;;3.90;99.90;;;;;;5040566;28;20044;-58
2022/01/31 10:20:35;;;;;;;13.70;2.30;;;3.90;99.90;;;;;;5041112;28;20021;-57
2022/01/31 10:23:06;;;;;;;12.88;2.67;;;3.80;99.90;;;;;;5041400;28;20049;-58
2022/01/31 10:25:33;;;;;;;12.85;2.72;;;3.90;99.90;;;;;;5042568;28;20025;-57
2022/01/31 10:27:58;;;;;;;19.27;4.38;;;3.90;99.90;;;;;;5037132;28;20021;-57
2022/01/31 10:30:29;;;;;;;8.63;3.20;;;3.90;99.90;;;;;;5041083;28;20024;-58
2022/01/31 10:32:58;;;;;;;11.35;2.80;;;3.80;99.90;;;;;;5044031;28;20033;-57
2022/01/31 10:35:28;;;;;;;10.98;2.95;;;3.80;99.90;;;;;;5036883;28;20108;-58
2022/01/31 10:38:03;;;;;;;20.38;5.07;;;3.90;99.90;;;;;;5045463;28;20032;-57
2022/01/31 10:43:50;;;;;;;15.57;3.33;;;4.00;99.90;;;;;;5035538;28;20043;-57
2022/01/31 10:56:23;;;;;;;16.55;3.22;;;3.90;99.90;;;;;;5040773;28;20033;-58
2022/01/31 10:59:02;;;;;;;17.15;3.20;;;3.90;99.90;;;;;;5036449;28;20613;-56
2022/01/31 11:01:29;;;;;;;20.35;4.40;;;3.90;99.90;;;;;;5037930;28;20033;-57
2022/01/31 11:03:56;;;;;;;8.27;2.80;;;3.90;99.90;;;;;;5032704;28;20087;-58
2022/01/31 11:06:23;;;;;;;15.90;4.30;;;3.90;99.90;;;;;;5032456;28;20025;-57
2022/01/31 11:08:50;;;;;;;11.77;3.10;;;3.90;99.90;;;;;;5033192;28;20033;-56
2022/01/31 11:11:16;;;;;;;17.02;3.70;;;3.90;99.90;;;;;;5039317;28;20112;-54
2022/01/31 11:13:42;;;;;;;14.30;3.90;;;3.90;99.90;;;;;;5039049;28;20024;-54
2022/01/31 11:16:08;;;;;;;20.95;4.65;;;3.90;99.90;;;;;;5042929;28;20052;-58
2022/01/31 11:18:36;;;;;;;15.10;3.78;;;3.90;99.90;;;;;;5041242;28;20045;-58
2022/01/31 11:21:05;;;;;;;22.25;4.63;;;4.00;99.90;;;;;;5041066;28;20036;-58
2022/01/31 11:23:37;;;;;;;23.50;4.82;;;4.00;99.90;;;;;;5031969;28;20040;-58
2022/01/31 11:26:06;;;;;;;32.60;9.05;;;4.10;99.90;;;;;;5033977;28;20029;-59
2022/01/31 11:28:34;;;;;;;19.65;3.63;;;4.10;99.90;;;;;;5043780;28;20501;-58
2022/01/31 11:31:01;;;;;;;20.55;4.03;;;4.10;99.90;;;;;;5031586;28;20036;-58
2022/01/31 11:33:28;;;;;;;29.98;4.65;;;4.10;99.90;;;;;;5037487;28;20029;-56
2022/01/31 11:35:55;;;;;;;16.98;4.03;;;4.10;99.90;;;;;;5046304;28;20028;-58
2022/01/31 11:38:21;;;;;;;18.17;4.15;;;4.20;99.90;;;;;;5022961;28;20576;-56
2022/01/31 11:40:47;;;;;;;22.23;5.15;;;4.10;99.90;;;;;;5032678;28;20017;-57
2022/01/31 11:43:14;;;;;;;17.23;3.65;;;4.10;99.90;;;;;;5035493;28;20029;-56
2022/01/31 11:45:41;;;;;;;19.58;4.57;;;4.20;99.90;;;;;;5031689;28;20017;-56
2022/01/31 11:48:20;;;;;;;8.90;2.47;;;4.20;99.90;;;;;;5031830;28;20025;-58
2022/01/31 11:50:53;;;;;;;11.18;2.58;;;4.10;99.90;;;;;;5034733;28;20014;-57
2022/01/31 11:53:33;;;;;;;18.98;2.90;;;4.10;99.90;;;;;;5041730;28;20021;-58
2022/01/31 11:56:07;;;;;;;18.92;2.58;;;4.10;99.90;;;;;;5041032;28;20121;-57
2022/01/31 11:58:52;;;;;;;14.05;3.53;;;4.10;99.90;;;;;;5042389;28;20036;-57
2022/01/31 12:01:20;;;;;;;15.88;2.63;;;4.10;99.90;;;;;;5045587;28;20021;-58
2022/01/31 12:03:58;;;;;;;20.00;3.05;;;4.10;99.90;;;;;;5038411;28;20103;-57
2022/01/31 12:06:32;;;;;;;24.70;3.83;;;4.10;99.90;;;;;;5037057;28;20024;-58
2022/01/31 12:09:10;;;;;;;16.33;3.30;;;4.10;99.90;;;;;;5039947;28;20021;-58
2022/01/31 12:11:57;;;;;;;27.27;4.55;;;4.10;99.90;;;;;;5033377;28;20029;-56
2022/01/31 12:14:38;;;;;;;15.45;3.60;;;4.10;99.90;;;;;;5038338;28;20024;-58
2022/01/31 12:17:39;;;;;;;19.45;3.20;;;4.10;99.90;;;;;;5034778;28;20105;-56
2022/01/31 12:20:15;;;;;;;16.35;4.28;;;4.10;99.90;;;;;;5040036;28;20033;-57
2022/01/31 12:22:47;;;;;;;16.85;3.85;;;4.10;99.90;;;;;;5037690;28;20036;-57
2022/01/31 12:25:23;;;;;;;28.27;4.38;;;4.10;99.90;;;;;;5039012;28;20036;-58
2022/01/31 12:27:50;;;;;;;25.17;4.03;;;4.10;99.90;;;;;;5036715;28;20025;-59
2022/01/31 12:30:30;;;;;;;23.52;3.92;;;4.20;99.90;;;;;;5034749;28;20068;-57
2022/01/31 12:32:56;;;;;;;24.25;3.72;;;4.20;99.90;;;;;;5036049;28;20096;-58
2022/01/31 12:35:35;;;;;;;36.28;4.32;;;4.20;99.90;;;;;;5032736;28;20400;-59
2022/01/31 12:38:01;;;;;;;24.30;3.53;;;4.20;99.90;;;;;;5038465;28;20042;-53
2022/01/31 12:40:33;;;;;;;36.90;5.45;;;4.20;99.90;;;;;;5037497;28;20043;-57
2022/01/31 12:45:32;;;;;;;20.65;4.22;;;4.20;99.90;;;;;;5023171;28;20041;-56
2022/01/31 12:48:23;;;;;;;32.30;4.35;;;4.20;99.90;;;;;;5040974;28;20021;-56
2022/01/31 12:50:48;;;;;;;28.40;4.30;;;4.20;99.90;;;;;;5036894;28;20021;-57
2022/01/31 12:53:23;;;;;;;37.05;6.40;;;4.30;99.90;;;;;;5035712;28;20036;-58
2022/01/31 12:56:06;;;;;;;24.38;4.43;;;4.30;99.90;;;;;;5037328;28;20092;-56
2022/01/31 12:58:41;;;;;;;22.48;3.35;;;4.30;99.90;;;;;;5042624;28;20017;-57
2022/01/31 13:01:12;;;;;;;27.42;3.92;;;4.30;99.90;;;;;;5033595;28;20414;-58
2022/01/31 13:03:39;;;;;;;28.25;3.88;;;4.30;99.90;;;;;;5037769;28;20096;-56
2022/01/31 13:06:35;;;;;;;23.75;4.60;;;4.30;99.90;;;;;;5041205;28;20576;-58
2022/01/31 13:09:06;;;;;;;24.77;4.45;;;4.30;99.90;;;;;;5047711;28;20052;-56
2022/01/31 13:11:32;;;;;;;36.42;5.55;;;4.20;99.90;;;;;;5052661;28;20025;-58
2022/01/31 13:14:13;;;;;;;26.15;5.47;;;4.20;99.90;;;;;;5047045;28;20099;-57
2022/01/31 13:16:57;;;;;;;28.70;3.75;;;4.20;99.90;;;;;;5049733;28;20033;-58
2022/01/31 13:19:24;;;;;;;28.42;4.15;;;4.20;99.90;;;;;;5043392;28;20497;-57
2022/01/31 13:21:51;;;;;;;23.85;3.83;;;4.20;99.90;;;;;;5044923;28;20030;-59
2022/01/31 13:24:19;;;;;;;22.20;3.08;;;4.20;99.90;;;;;;5045676;28;20056;-58